• Join FlightAware (Why Join?)
  • Login
  • US Flag 
07:10AM EDT


 

Airport Tracker/Info


-or-


 

Live Flight TrackerFlight Track Log ✈ RPA3869 ✈ 15-May-2013 ✈ KMYR - KEWR

Flight Track Log - Related Links

Times and Time Zones

All times are in EDT time to prevent confusion due to time zone crossing. See the RPA3869 flight status page for this flight to view local times or setup timezone preferences in your user account.

Time Position Orientation Groundspeed Altitude Reporting Facility
EDT Latitude Longitude Course Direction KTS MPH feet Rate Location/Type
01:12PM 33.6186 -78.8947 59° Northeast 214 246 2,100  Level Jacksonville Center
01:13PM 33.6544 -78.8381 53° Northeast 237 273 4,200 2,040 Climbing Jacksonville Center
01:14PM 33.7094 -78.7981 31° Northeast 225 259 6,300 2,220 Climbing Jacksonville Center
01:15PM 33.9548 -78.4798 64° Northeast  Level FlightAware Approximate
01:15PM 33.7647 -78.7606 29° Northeast 225 259 8,700  Level Jacksonville Center
01:16PM 34.0136 -78.3913 46° Northeast  Level FlightAware Approximate
01:16PM 33.8156 -78.7233 31° Northeast 220 253 10,500  Level Jacksonville Center
01:17PM 34.0647 -78.3040 59° Northeast  Level FlightAware Approximate
01:17PM 33.8572 -78.6561 53° Northeast 225 259 12,200  Level Jacksonville Center
01:19PM 33.9353 -78.5353 52° Northeast 266 306 14,700 1,320 Climbing Washington Center
01:20PM 33.9808 -78.4644 52° Northeast 266 306 15,800 1,020 Climbing Washington Center
01:21PM 34.0286 -78.3883 53° Northeast 271 312 16,800 960 Climbing Washington Center
01:22PM 34.0783 -78.3097 53° Northeast 271 312 17,800 900 Climbing Washington Center
01:23PM 34.1281 -78.2361 51° Northeast 271 312 18,700 900 Climbing Washington Center
01:24PM 34.1778 -78.1575 53° Northeast 276 318 19,600 840 Climbing Washington Center
01:25PM 34.2208 -78.0858 54° Northeast 281 323 20,400 660 Climbing Washington Center
01:26PM 34.2769 -77.9947 53° Northeast 297 342 21,000 300 Climbing Washington Center
01:27PM 34.3264 -77.9206 51° Northeast 302 348 21,000  Level Washington Center
01:28PM 34.4008 -77.8597 34° Northeast 315 362 21,000  Level Washington Center
01:29PM 34.4908 -77.8422 North 308 354 21,000  Level Washington Center
01:30PM 34.5831 -77.8194 11° North 314 361 21,000  Level Washington Center
01:31PM 34.6753 -77.7967 11° North 327 376 21,000  Level Washington Center
01:32PM 34.7675 -77.7764 10° North 332 382 21,000  Level Washington Center
01:33PM 34.8658 -77.7489 13° North 332 382 21,000  Level Washington Center
01:34PM 34.9583 -77.7233 13° North 337 388 21,000  Level Washington Center
01:35PM 35.0503 -77.7028 10° North 337 388 21,000  Level Washington Center
01:36PM 35.1428 -77.6775 13° North 337 388 21,000  Level Washington Center
01:37PM 35.2347 -77.6544 12° North 332 382 21,000  Level Washington Center
01:38PM 35.3292 -77.6314 11° North 332 382 21,000  Level Washington Center
01:39PM 35.4192 -77.6081 12° North 332 382 21,000  Level Washington Center
01:40PM 35.5114 -77.5850 12° North 332 382 21,000  Level Washington Center
01:41PM 35.6036 -77.5617 12° North 332 382 21,000  Level Washington Center
01:42PM 35.6958 -77.5383 12° North 332 382 21,000  Level Washington Center
01:43PM 35.7900 -77.5150 11° North 332 382 21,000  Level Washington Center
01:44PM 35.8822 -77.4942 10° North 332 382 21,000  Level Washington Center
01:45PM 35.9744 -77.4708 12° North 332 382 21,000  Level Washington Center
01:46PM 36.0667 -77.4472 12° North 332 382 21,000  Level Washington Center
01:47PM 36.1608 -77.4236 11° North 332 382 21,000  Level Washington Center
01:48PM 36.2406 -77.4050 11° North 332 382 21,000  Level Washington Center
01:49PM 36.3328 -77.3761 14° North 332 382 21,000  Level Washington Center
01:50PM 36.4228 -77.3550 11° North 332 382 21,000  Level Washington Center
01:51PM 36.5147 -77.3311 12° North 332 382 21,000  Level Washington Center
01:52PM 36.6028 -77.3022 15° North 332 382 21,000  Level Washington Center
01:53PM 36.6931 -77.2628 19° North 337 388 21,000  Level Washington Center
01:54PM 36.7814 -77.2256 19° North 337 388 21,000  Level Washington Center
01:55PM 36.8694 -77.1911 17° North 337 388 21,000  Level Washington Center
01:56PM 36.9575 -77.1514 20° North 337 388 21,000  Level Washington Center
01:57PM 37.0561 -77.1092 19° North 332 382 21,000  Level Washington Center
01:58PM 37.1419 -77.0744 18° North 332 382 21,000  Level Washington Center
01:59PM 37.2300 -77.0369 19° North 325 374 21,000  Level Washington Center
02:00PM 37.3181 -76.9994 19° North 325 374 21,000  Level Washington Center
02:01PM 37.3978 -76.9669 18° North 325 374 21,000  Level Washington Center
02:02PM 37.4922 -76.9267 19° North 325 374 21,000  Level Washington Center
02:03PM 37.5781 -76.8889 19° North 340 391 21,000  Level Washington Center
02:04PM 37.6661 -76.8511 19° North 340 391 21,000  Level Washington Center
02:05PM 37.7542 -76.8131 19° North 334 384 21,000  Level Washington Center
02:06PM 37.8419 -76.7750 19° North 334 384 21,000  Level Washington Center
02:07PM 37.9322 -76.7369 18° North 334 384 21,000  Level Washington Center
02:08PM 38.0181 -76.6831 26° Northeast 329 379 21,000  Level Washington Center
02:09PM 38.1042 -76.6289 26° Northeast 334 384 21,000 -720 Level Washington Center
02:10PM 38.1900 -76.5719 28° Northeast 339 390 19,700 -1,380 Descending Washington Center
02:11PM 38.2781 -76.5175 26° Northeast 344 396 18,200 -1,620 Descending Washington Center
02:12PM 38.3744 -76.4578 26° Northeast 344 396 16,500 -1,680 Descending Washington Center
02:13PM 38.4644 -76.4006 26° Northeast 344 396 15,000 -1,560 Descending Washington Center
02:14PM 38.5483 -76.3456 27° Northeast 344 396 13,500 -1,020 Descending Washington Center
02:15PM 38.6297 -76.2986 24° Northeast 332 382 13,000 -240 Descending Washington Center
02:16PM 38.7133 -76.2728 14° North 317 365 13,100 -540 Climbing Washington Center
02:17PM 38.8011 -76.2256 23° Northeast 317 365 12,000 -1,020 Descending Washington Center
02:18PM 38.8806 -76.1783 25° Northeast 312 359 11,100 -540 Descending Washington Center
02:19PM 38.9683 -76.1283 24° Northeast 324 373 11,000 -60 Descending Washington Center
02:20PM 39.0519 -76.0833 23° Northeast 319 367 11,000  Level Washington Center
02:21PM 39.1333 -76.0386 23° Northeast 314 361 11,000  Level Washington Center
02:22PM 39.2128 -75.9908 25° Northeast 314 361 11,000  Level Washington Center
02:23PM 39.2922 -75.9456 24° Northeast 314 361 11,000  Level Washington Center
02:25PM 39.4667 -75.8500 23° Northeast 330 380 11,100  Climbing Philadelphia TRACON
02:26PM 39.5333 -75.7833 38° Northeast 359 413 11,100  Level Philadelphia TRACON
02:27PM 39.6000 -75.6667 53° Northeast 336 387 11,100  Level Philadelphia TRACON
02:28PM 39.6333 -75.5667 67° East 334 384 11,100  Level Philadelphia TRACON
02:29PM 39.6667 -75.4833 63° Northeast 329 379 11,100  Level Philadelphia TRACON
02:31PM 39.7500 -75.2667 63° Northeast 316 364 11,100 -60 Level Philadelphia TRACON
02:32PM 39.7833 -75.1667 67° East 279 321 11,000 -540 Descending Philadelphia TRACON
02:33PM 39.8167 -75.0833 62° Northeast 274 315 10,100 -1,500 Descending Philadelphia TRACON
02:34PM 39.8667 -74.9833 57° Northeast 313 360 8,200 -1,560 Descending Philadelphia TRACON
02:35PM 39.9167 -74.9167 46° Northeast 289 333 7,000 -600 Descending Philadelphia TRACON
02:36PM 39.9667 -74.8333 52° Northeast 293 337 7,000  Level Philadelphia TRACON
02:37PM 40.0333 -74.7500 44° Northeast 294 338 7,000  Level Philadelphia TRACON
02:38PM 40.1000 -74.6667 44° Northeast 291 335 7,000  Level New York TRACON
02:39PM 40.1833 -74.6333 17° North 284 327 7,000  Level New York TRACON
02:40PM 40.2500 -74.6000 21° North 283 326 7,000  Level New York TRACON
02:41PM 40.3333 -74.5833 North 285 328 7,000 -300 Level New York TRACON
02:42PM 40.4000 -74.5667 11° North 276 318 6,400 -480 Descending New York TRACON
02:43PM 40.4833 -74.5333 17° North 274 315 6,100 -180 Descending New York TRACON
02:44PM 40.5500 -74.5333 360° North 281 323 6,100  Level New York TRACON
02:45PM 40.6333 -74.5167 North 282 325 6,100  Level New York TRACON
02:46PM 40.7167 -74.5167 360° North 280 322 6,100  Level New York TRACON
02:47PM 40.8000 -74.5000 North 278 320 6,100 -360 Level New York TRACON
02:48PM 40.8667 -74.5000 360° North 291 335 5,500 -540 Descending New York TRACON
02:49PM 40.9167 -74.4000 56° Northeast 280 322 5,100 -240 Descending New York TRACON
02:50PM 40.9667 -74.3500 37° Northeast 260 299 5,100 -300 Level New York TRACON
02:51PM 41.0167 -74.2667 51° Northeast 279 321 4,600 -600 Descending New York TRACON
02:52PM 40.9833 -74.1833 118° Southeast 241 277 4,000 -660 Descending New York TRACON
02:53PM 40.9500 -74.1167 123° Southeast 236 272 3,300 -540 Descending New York TRACON
02:54PM 40.9000 -74.0833 153° Southeast 201 231 3,000 -420 Descending New York TRACON
02:55PM 40.8500 -74.0833 180° South 181 208 2,500 -540 Descending New York TRACON